KMOR/MOR METAR and TAF weather

Enter ICAO airport designator
Station Type Date Time Source
KMOR METAR 2019/05/25 15:35 UTC NOAA

KMOR 251535Z AUTO 28008KT 10SM SCT085 29/20 A3020 RMK A01


Station Type Date Time Source
KMOR Decoded METAR 2019/05/25 15:35 UTC NOAA

Station name not available
May 25, 2019 - 11:35 AM EDT / 2019.05.25 1535 UTC
Wind: from the W (280 degrees) at 9 MPH (8 KT):0
Visibility: 10 mile(s):0
Sky conditions: partly cloudy
Temperature: 84 F (29 C)
Dew Point: 68 F (20 C)
Relative Humidity: 58%
Pressure (altimeter): 30.2 in. Hg (1022 hPa)
ob: KMOR 251535Z AUTO 28008KT 10SM SCT085 29/20 A3020 RMK A01
cycle: 15

Station Type Date Time Source
KMOR TAF UTC NOAA

Error!

Example: see airport list